CheckWX is a tool to help pilots better visualize weather data.  It is not intended as a substitute for an official pre-flight weather briefing.

04:27:41 UTC

PAOM METAR
Nome Airport
Nome, Alaska, USA
Current

35 mins ago

PAOM 260353Z 15008KT 10SM CLR 07/03 A2984 RMK AO2 SLP106 T00720033 $
Observed
May-26 @ 03:53 UTC
Wind
  • 150° at 8 KTS
Visibility
Flight Rules
VFR
Cloud Levels
  • Clear skies
Temperature
C / 45°F
Dewpoint
C / 37°F
Humidity
76%
Altimeter
29.84" Hg
Pressure
1010.52 hPa
Previous

2 hours ago

PAOM 260253Z 15007KT 10SM CLR 07/04 A2984 RMK AO2 SLP106 T00720039 53004 $
Observed
May-26 @ 02:53 UTC
Wind
  • 150° at 7 KTS
Visibility
Flight Rules
VFR
Cloud Levels
  • Clear skies
Temperature
C / 45°F
Dewpoint
C / 39°F
Humidity
81%
Altimeter
29.84" Hg
Pressure
1010.52 hPa
Previous

3 hours ago

PAOM 260153Z 16006KT 10SM CLR 08/02 A2984 RMK AO2 SLP104 T00830017 $
Observed
May-26 @ 01:53 UTC
Wind
  • 160° at 6 KTS
Visibility
Flight Rules
VFR
Cloud Levels
  • Clear skies
Temperature
C / 46°F
Dewpoint
C / 36°F
Humidity
66%
Altimeter
29.84" Hg
Pressure
1010.52 hPa